Time;durP1;ratioP1;P1;durP2;ratioP2;P2;SDS_P1;SDS_P2;PMS_P1;PMS_P2;Temp;Humidity;BMP_temperature;BMP_pressure;BME280_temperature;BME280_humidity;BME280_pressure;Samples;Min_cycle;Max_cycle;Signal;HPM_P1;HPM_P2
2022/06/23 00:00:50;;;;;;;;;;;11.60;79.90;;;;;;5053754;28;20370;-74
2022/06/23 00:03:20;;;;;;;;;;;11.60;79.60;;;;;;5054357;28;20276;-74
2022/06/23 00:05:48;;;;;;;;;;;11.70;79.20;;;;;;5076115;28;20006;-74
2022/06/23 00:08:15;;;;;;;;;;;11.70;79.30;;;;;;5057668;28;19908;-74
2022/06/23 00:10:44;;;;;;;;;;;11.70;79.20;;;;;;5057906;28;19908;-74
2022/06/23 00:13:15;;;;;;;;;;;11.80;78.80;;;;;;5057791;28;19919;-73
2022/06/23 00:15:42;;;;;;;;;;;11.80;78.40;;;;;;5040848;28;19916;-73
2022/06/23 00:18:22;;;;;;;;;;;11.80;78.30;;;;;;5057844;28;19958;-74
2022/06/23 00:20:49;;;;;;;;;;;11.90;78.00;;;;;;5057987;28;19909;-74
2022/06/23 00:23:17;;;;;;;;;;;11.90;77.90;;;;;;5075725;28;19917;-74
2022/06/23 00:25:47;;;;;;;;;;;12.00;77.50;;;;;;5040782;28;19923;-73
2022/06/23 00:28:15;;;;;;;;;;;12.00;77.50;;;;;;5075265;28;19909;-73
2022/06/23 00:30:41;;;;;;;;;;;12.10;77.00;;;;;;5057784;28;20286;-74
2022/06/23 00:33:14;;;;;;;;;;;12.10;77.00;;;;;;5057577;28;19908;-74
2022/06/23 00:35:40;;;;;;;;;;;12.10;77.00;;;;;;5040430;28;19916;-74
2022/06/23 00:38:15;;;;;;;;;;;12.20;76.80;;;;;;5057540;28;19908;-74
2022/06/23 00:40:42;;;;;;;;;;;12.20;76.40;;;;;;5057694;28;19912;-74
2022/06/23 00:43:09;;;;;;;;;;;12.30;76.40;;;;;;5045328;28;19961;-73
2022/06/23 00:45:47;;;;;;;;;;;12.30;76.10;;;;;;5038093;28;19919;-74
2022/06/23 00:48:20;;;;;;;;;;;12.40;76.10;;;;;;5073685;28;19913;-74
2022/06/23 00:50:51;;;;;;;;;;;12.40;75.70;;;;;;5074510;28;19912;-74
2022/06/23 00:53:28;;;;;;;;;;;12.50;75.50;;;;;;5055893;28;20286;-73
2022/06/23 00:56:06;;;;;;;;;;;12.50;75.60;;;;;;5074714;28;19924;-74
2022/06/23 00:58:45;;;;;;;;;;;12.60;75.20;;;;;;5056845;28;19908;-74
2022/06/23 01:01:13;;;;;;;;;;;12.60;75.20;;;;;;5074539;28;20003;-74
2022/06/23 01:03:42;;;;;;;;;;;12.70;74.90;;;;;;5056905;28;20003;-74
2022/06/23 01:06:32;;;;;;;;;;;12.70;74.70;;;;;;5056662;28;19915;-73
2022/06/23 01:09:17;;;;;;;;;;;12.80;74.20;;;;;;5063933;28;19909;-73
2022/06/23 01:12:03;;;;;;;;;;;12.80;74.20;;;;;;5047521;28;19920;-74
2022/06/23 01:14:36;;;;;;;;;;;12.90;73.70;;;;;;5055664;28;20366;-74
2022/06/23 01:17:03;;;;;;;;;;;13.00;73.40;;;;;;5073869;28;19909;-72
2022/06/23 01:19:48;;;;;;;;;;;13.00;73.30;;;;;;5074218;28;19913;-74
2022/06/23 01:22:40;;;;;;;;;;;13.10;73.30;;;;;;5074412;28;20057;-73
2022/06/23 01:25:25;;;;;;;;;;;13.10;72.90;;;;;;5043371;28;20046;-74
2022/06/23 01:28:10;;;;;;;;;;;13.20;72.90;;;;;;5074465;28;19908;-74
2022/06/23 01:30:37;;;;;;;;;;;13.20;72.90;;;;;;5050298;28;20370;-74
2022/06/23 01:33:16;;;;;;;;;;;13.20;72.40;;;;;;5056443;28;20086;-74
2022/06/23 01:35:47;;;;;;;;;;;13.30;72.00;;;;;;5074080;28;19924;-74
2022/06/23 01:38:25;;;;;;;;;;;13.30;71.90;;;;;;5056015;28;19913;-74
2022/06/23 01:40:53;;;;;;;;;;;13.30;71.40;;;;;;5056251;28;19905;-74
2022/06/23 01:43:27;;;;;;;;;;;13.40;71.40;;;;;;5056224;28;20278;-74
2022/06/23 01:45:57;;;;;;;;;;;13.50;71.30;;;;;;5042485;28;19971;-74
2022/06/23 01:48:54;;;;;;;;;;;13.50;71.10;;;;;;5073711;28;19919;-74
2022/06/23 01:51:20;;;;;;;;;;;13.60;70.90;;;;;;5047152;28;19919;-73
2022/06/23 01:53:47;;;;;;;;;;;13.60;70.60;;;;;;5073833;28;19959;-74
2022/06/23 01:56:26;;;;;;;;;;;13.60;70.40;;;;;;5055654;28;19948;-74
2022/06/23 01:59:11;;;;;;;;;;;13.60;70.40;;;;;;5073656;28;19909;-74
2022/06/23 02:01:46;;;;;;;;;;;13.70;70.10;;;;;;5048357;28;19915;-74
2022/06/23 02:04:15;;;;;;;;;;;13.70;70.00;;;;;;5055712;28;19986;-74
2022/06/23 02:06:45;;;;;;;;;;;13.70;70.00;;;;;;5055944;28;19909;-74
2022/06/23 02:09:11;;;;;;;;;;;13.70;69.90;;;;;;5055877;28;20309;-73
2022/06/23 02:11:45;;;;;;;;;;;13.80;69.60;;;;;;5073340;28;19909;-74
2022/06/23 02:14:15;;;;;;;;;;;13.80;69.70;;;;;;5055811;28;19928;-74
2022/06/23 02:16:44;;;;;;;;;;;13.80;69.60;;;;;;5073191;28;19919;-74
2022/06/23 02:19:16;;;;;;;;;;;13.90;69.50;;;;;;5073667;28;20251;-74
2022/06/23 02:21:46;;;;;;;;;;;13.90;69.60;;;;;;5073007;28;19915;-74
2022/06/23 02:24:25;;;;;;;;;;;13.90;69.40;;;;;;5072676;28;20442;-74
2022/06/23 02:26:56;;;;;;;;;;;14.00;68.80;;;;;;5055066;28;19977;-74
2022/06/23 02:29:25;;;;;;;;;;;14.00;68.60;;;;;;5073032;28;19989;-74
2022/06/23 02:32:10;;;;;;;;;;;14.10;68.40;;;;;;5055162;28;19916;-74
2022/06/23 02:34:58;;;;;;;;;;;14.10;68.40;;;;;;5072949;28;19917;-74
2022/06/23 02:37:42;;;;;;;;;;;14.10;68.20;;;;;;5031400;28;19954;-75
2022/06/23 02:40:14;;;;;;;;;;;14.20;68.30;;;;;;5072691;28;19908;-74
2022/06/23 02:42:41;;;;;;;;;;;14.20;68.40;;;;;;5055219;28;19920;-74
2022/06/23 02:45:25;;;;;;;;;;;14.20;68.60;;;;;;5061353;28;19911;-74
2022/06/23 02:48:04;;;;;;;;;;;14.20;68.60;;;;;;5044756;28;20340;-74
2022/06/23 02:50:36;;;;;;;;;;;14.20;68.40;;;;;;5072686;28;19912;-74
2022/06/23 02:53:21;;;;;;;;;;;14.30;68.50;;;;;;5054622;28;19912;-74
2022/06/23 02:55:59;;;;;;;;;;;14.30;68.70;;;;;;5072414;28;19921;-74
2022/06/23 02:58:30;;;;;;;;;;;14.30;68.40;;;;;;5055029;28;19919;-74
2022/06/23 03:01:13;;;;;;;;;;;14.30;68.40;;;;;;5072526;28;19912;-73
2022/06/23 03:03:40;;;;;;;;;;;14.40;68.40;;;;;;5054531;28;19927;-74
2022/06/23 03:06:18;;;;;;;;;;;14.40;68.60;;;;;;5054347;28;19909;-74
2022/06/23 03:08:57;;;;;;;;;;;14.40;68.40;;;;;;5072745;28;19913;-74
2022/06/23 03:14:35;;;;;;;;;;;14.50;68.50;;;;;;5072544;28;19924;-74
2022/06/23 03:17:05;;;;;;;;;;;14.60;68.70;;;;;;5044306;28;19915;-74
2022/06/23 03:19:35;;;;;;;;;;;14.60;68.40;;;;;;5054349;28;20038;-74
2022/06/23 03:22:07;;;;;;;;;;;14.60;68.60;;;;;;5072091;28;19960;-74
2022/06/23 03:24:45;;;;;;;;;;;14.60;68.70;;;;;;5037462;28;19909;-74
2022/06/23 03:27:19;;;;;;;;;;;14.70;68.40;;;;;;5054633;28;19915;-74
2022/06/23 03:29:47;;;;;;;;;;;14.70;68.60;;;;;;5054235;28;19920;-74
2022/06/23 03:32:20;;;;;;;;;;;14.70;68.50;;;;;;5054276;28;20282;-74
2022/06/23 03:35:09;;;;;;;;;;;14.70;68.70;;;;;;5071647;28;19921;-74
2022/06/23 03:37:56;;;;;;;;;;;14.70;68.80;;;;;;5071794;28;20011;-73
2022/06/23 03:43:33;;;;;;;;;;;14.80;69.00;;;;;;5072363;28;19923;-74
2022/06/23 03:46:20;;;;;;;;;;;14.80;69.10;;;;;;5034759;28;19908;-74
2022/06/23 03:48:51;;;;;;;;;;;14.80;68.70;;;;;;5037370;28;19908;-74
2022/06/23 03:51:21;;;;;;;;;;;14.80;68.80;;;;;;5027001;28;19908;-74
2022/06/23 03:53:56;;;;;;;;;;;14.90;69.00;;;;;;5072035;28;19915;-74
2022/06/23 03:56:27;;;;;;;;;;;14.90;68.50;;;;;;5044407;28;20349;-74
2022/06/23 03:58:56;;;;;;;;;;;15.00;68.80;;;;;;5054060;28;19978;-74
2022/06/23 04:01:25;;;;;;;;;;;15.00;68.70;;;;;;5053956;28;19960;-74
2022/06/23 04:03:57;;;;;;;;;;;15.00;68.50;;;;;;5053830;28;20002;-74
2022/06/23 04:06:36;;;;;;;;;;;15.00;68.00;;;;;;5037372;28;19943;-74
2022/06/23 04:09:21;;;;;;;;;;;15.00;66.60;;;;;;5072056;28;19916;-73
2022/06/23 04:11:53;;;;;;;;;;;15.00;66.10;;;;;;5045922;28;19944;-74
2022/06/23 04:14:52;;;;;;;;;;;15.00;65.70;;;;;;5071737;28;19963;-74
2022/06/23 04:17:28;;;;;;;;;;;15.00;65.60;;;;;;4999946;28;19909;-74
2022/06/23 04:20:23;;;;;;;;;;;15.00;65.10;;;;;;5067456;28;19909;-73
2022/06/23 04:22:53;;;;;;;;;;;15.00;65.10;;;;;;5000059;28;19910;-74
2022/06/23 04:25:23;;;;;;;;;;;15.00;65.80;;;;;;5071114;28;19938;-73
2022/06/23 04:27:53;;;;;;;;;;;15.10;65.70;;;;;;5071480;28;19935;-74
2022/06/23 04:30:34;;;;;;;;;;;15.10;65.20;;;;;;5053502;28;20286;-74
2022/06/23 04:33:02;;;;;;;;;;;15.10;65.80;;;;;;5071481;28;20354;-74
2022/06/23 04:35:52;;;;;;;;;;;15.00;65.40;;;;;;5053301;28;19917;-74
2022/06/23 04:38:21;;;;;;;;;;;15.10;65.80;;;;;;5060885;28;19908;-74
2022/06/23 04:40:48;;;;;;;;;;;15.00;65.60;;;;;;5071407;28;20363;-74
2022/06/23 04:43:35;;;;;;;;;;;15.10;65.20;;;;;;5053264;28;19916;-74
2022/06/23 04:46:14;;;;;;;;;;;15.10;65.00;;;;;;5037295;28;20370;-74
2022/06/23 04:48:40;;;;;;;;;;;15.10;64.90;;;;;;5053062;28;19909;-73
2022/06/23 04:51:19;;;;;;;;;;;15.20;64.50;;;;;;5074442;28;19909;-73
2022/06/23 04:53:46;;;;;;;;;;;15.20;64.30;;;;;;5074907;28;19970;-74
2022/06/23 04:56:31;;;;;;;;;;;15.20;63.90;;;;;;5074730;28;20329;-73
2022/06/23 04:58:59;;;;;;;;;;;15.20;63.90;;;;;;5074335;28;19916;-73
2022/06/23 05:01:26;;;;;;;;;;;15.20;63.70;;;;;;5056768;28;19923;-73
2022/06/23 05:03:57;;;;;;;;;;;15.30;62.70;;;;;;5074491;28;19921;-74
2022/06/23 05:06:26;;;;;;;;;;;15.30;62.30;;;;;;5074453;28;19908;-74
2022/06/23 05:08:52;;;;;;;;;;;15.20;62.40;;;;;;5074606;28;19916;-74
2022/06/23 05:11:28;;;;;;;;;;;15.20;63.00;;;;;;5074409;28;19909;-73
2022/06/23 05:13:56;;;;;;;;;;;15.20;62.80;;;;;;5056875;28;20345;-73
2022/06/23 05:16:36;;;;;;;;;;;15.20;63.20;;;;;;5050421;28;19917;-74
2022/06/23 05:19:07;;;;;;;;;;;15.20;62.70;;;;;;5074362;28;19935;-73
2022/06/23 05:21:41;;;;;;;;;;;15.20;62.40;;;;;;5035983;28;19912;-74
2022/06/23 05:24:09;;;;;;;;;;;15.20;62.10;;;;;;5074506;28;20251;-74
2022/06/23 05:26:39;;;;;;;;;;;15.20;62.00;;;;;;5039112;28;19927;-73
2022/06/23 05:29:17;;;;;;;;;;;15.20;62.60;;;;;;5056570;28;19963;-74
2022/06/23 05:31:44;;;;;;;;;;;15.10;62.50;;;;;;5056693;28;19952;-74
2022/06/23 05:34:37;;;;;;;;;;;15.10;62.50;;;;;;5042712;28;19921;-74
2022/06/23 05:37:04;;;;;;;;;;;15.10;61.90;;;;;;5056609;28;20381;-73
2022/06/23 05:39:32;;;;;;;;;;;15.20;61.20;;;;;;5074002;28;19909;-74
2022/06/23 05:41:59;;;;;;;;;;;15.10;61.70;;;;;;5027625;28;19990;-69
2022/06/23 05:44:30;;;;;;;;;;;15.10;61.90;;;;;;5033593;28;19912;-70
2022/06/23 05:46:58;;;;;;;;;;;15.10;62.10;;;;;;5045233;28;19958;-70
2022/06/23 05:49:46;;;;;;;;;;;15.10;62.10;;;;;;5053252;28;19940;-70
2022/06/23 05:52:15;;;;;;;;;;;15.10;62.10;;;;;;5070952;28;19919;-71
2022/06/23 05:55:10;;;;;;;;;;;15.10;62.10;;;;;;5044091;28;19925;-70
2022/06/23 05:57:42;;;;;;;;;;;15.10;62.10;;;;;;5054545;28;20284;-71
2022/06/23 06:00:26;;;;;;;;;;;15.00;62.20;;;;;;5071033;28;19970;-71
2022/06/23 06:03:06;;;;;;;;;;;15.00;62.30;;;;;;5067684;28;20103;-71
2022/06/23 06:05:36;;;;;;;;;;;15.10;61.90;;;;;;5058996;28;19920;-72
2022/06/23 06:08:07;;;;;;;;;;;15.00;62.20;;;;;;5066723;28;20274;-71
2022/06/23 06:10:34;;;;;;;;;;;15.00;62.50;;;;;;5070747;28;19913;-71
2022/06/23 06:13:02;;;;;;;;;;;14.90;62.80;;;;;;5070725;28;19916;-71
2022/06/23 06:15:29;;;;;;;;;;;14.90;62.90;;;;;;5037681;28;20008;-70
2022/06/23 06:18:11;;;;;;;;;;;14.80;62.80;;;;;;5061026;28;19915;-73
2022/06/23 06:20:41;;;;;;;;;;;14.80;62.80;;;;;;5052668;28;21317;-72
2022/06/23 06:23:09;;;;;;;;;;;14.80;62.90;;;;;;5050494;28;19913;-69
2022/06/23 06:25:37;;;;;;;;;;;14.80;63.00;;;;;;5042215;28;19921;-69
2022/06/23 06:28:17;;;;;;;;;;;14.80;63.20;;;;;;5027730;28;20007;-71
2022/06/23 06:31:03;;;;;;;;;;;14.80;63.30;;;;;;5070295;28;19917;-71
2022/06/23 06:33:33;;;;;;;;;;;14.80;63.50;;;;;;5056011;28;19919;-70
2022/06/23 06:36:00;;;;;;;;;;;14.70;63.50;;;;;;5051391;28;19925;-69
2022/06/23 06:38:27;;;;;;;;;;;14.70;63.60;;;;;;5038056;28;20027;-68
2022/06/23 06:40:54;;;;;;;;;;;14.70;63.60;;;;;;5051825;28;20328;-69
2022/06/23 06:43:21;;;;;;;;;;;14.70;63.80;;;;;;5038753;28;19913;-68
2022/06/23 06:45:48;;;;;;;;;;;14.70;63.80;;;;;;5055119;28;20366;-69
2022/06/23 06:48:18;;;;;;;;;;;14.60;63.90;;;;;;5069577;28;19952;-69
2022/06/23 06:50:45;;;;;;;;;;;14.70;63.90;;;;;;5051956;28;19934;-71
2022/06/23 06:53:15;;;;;;;;;;;14.50;63.90;;;;;;5070124;28;19909;-69
2022/06/23 06:55:43;;;;;;;;;;;14.60;64.10;;;;;;5043183;28;19929;-70
2022/06/23 06:58:19;;;;;;;;;;;14.60;64.20;;;;;;5031475;28;19916;-69
2022/06/23 07:00:46;;;;;;;;;;;14.60;64.40;;;;;;5037989;28;19913;-69
2022/06/23 07:03:14;;;;;;;;;;;14.50;64.60;;;;;;5067830;28;20456;-69
2022/06/23 07:05:53;;;;;;;;;;;14.50;64.80;;;;;;5052398;28;19917;-69
2022/06/23 07:08:20;;;;;;;;;;;14.50;64.90;;;;;;5049504;28;20313;-69
2022/06/23 07:11:09;;;;;;;;;;;14.50;64.90;;;;;;5062469;28;19916;-71
2022/06/23 07:13:39;;;;;;;;;;;14.40;65.00;;;;;;5057906;28;19916;-70
2022/06/23 07:16:27;;;;;;;;;;;14.40;65.10;;;;;;5051423;28;19925;-69
2022/06/23 07:18:59;;;;;;;;;;;14.40;65.40;;;;;;5039632;28;20352;-73
2022/06/23 07:21:28;;;;;;;;;;;14.40;65.70;;;;;;5069205;28;19955;-73
2022/06/23 07:23:55;;;;;;;;;;;14.30;65.80;;;;;;5030176;28;19969;-73
2022/06/23 07:26:39;;;;;;;;;;;14.30;65.90;;;;;;5058254;28;19974;-74
2022/06/23 07:29:18;;;;;;;;;;;14.30;66.00;;;;;;5062008;28;19916;-73
2022/06/23 07:32:00;;;;;;;;;;;14.30;66.20;;;;;;5062048;28;19946;-73
2022/06/23 07:34:26;;;;;;;;;;;14.30;66.20;;;;;;5048831;28;19916;-73
2022/06/23 07:36:55;;;;;;;;;;;14.30;66.60;;;;;;5028918;28;19917;-73
2022/06/23 07:39:23;;;;;;;;;;;14.30;66.40;;;;;;5048749;28;19912;-73
2022/06/23 07:42:04;;;;;;;;;;;14.20;66.50;;;;;;5048812;28;19919;-74
2022/06/23 07:44:35;;;;;;;;;;;14.30;66.50;;;;;;5039547;28;19919;-73
2022/06/23 07:47:02;;;;;;;;;;;14.20;66.90;;;;;;5031625;28;19913;-73
2022/06/23 07:49:30;;;;;;;;;;;14.20;67.00;;;;;;5067624;28;20002;-73
2022/06/23 07:51:57;;;;;;;;;;;14.20;67.00;;;;;;5049138;28;19916;-73
2022/06/23 07:54:23;;;;;;;;;;;14.20;67.10;;;;;;5052078;28;20023;-71
2022/06/23 07:56:50;;;;;;;;;;;14.20;67.30;;;;;;5035051;28;19917;-70
2022/06/23 07:59:17;;;;;;;;;;;14.20;67.40;;;;;;5031871;28;19922;-70
2022/06/23 08:01:44;;;;;;;;;;;14.20;67.20;;;;;;5031743;28;19971;-70
2022/06/23 08:04:10;;;;;;;;;;;14.10;67.30;;;;;;5049970;28;19924;-69
2022/06/23 08:06:37;;;;;;;;;;;14.10;67.20;;;;;;5051287;28;20326;-70
2022/06/23 08:09:05;;;;;;;;;;;14.10;66.80;;;;;;5035004;28;20367;-69
2022/06/23 10:53:12;;;;;;;;;;;13.00;72.40;;;;;;5041556;28;20040;-72
2022/06/23 10:55:57;;;;;;;;;;;13.00;72.60;;;;;;5048558;28;19982;-72
2022/06/23 10:58:30;;;;;;;;;;;13.00;72.30;;;;;;5051235;28;19917;-69
2022/06/23 11:00:57;;;;;;;;;;;13.00;72.70;;;;;;5034137;28;19909;-72
2022/06/23 11:03:36;;;;;;;;;;;13.00;73.00;;;;;;5042855;28;19913;-70
2022/06/23 11:06:12;;;;;;;;;;;13.00;73.10;;;;;;5051749;28;20408;-69
2022/06/23 11:08:59;;;;;;;;;;;13.00;72.80;;;;;;5052316;28;19920;-70
2022/06/23 11:11:48;;;;;;;;;;;12.90;73.20;;;;;;5033051;28;19913;-71
2022/06/23 11:14:17;;;;;;;;;;;12.90;73.00;;;;;;5043988;28;20313;-72
2022/06/23 11:16:53;;;;;;;;;;;12.90;73.10;;;;;;5049921;28;19919;-71
2022/06/23 11:19:24;;;;;;;;;;;13.00;72.70;;;;;;5042532;28;19920;-71
2022/06/23 11:21:59;;;;;;;;;;;12.80;73.10;;;;;;5019028;28;20012;-72
2022/06/23 11:24:30;;;;;;;;;;;12.80;73.90;;;;;;5030435;28;20000;-70
2022/06/23 11:26:59;;;;;;;;;;;12.80;73.60;;;;;;5038039;28;20422;-71
2022/06/23 11:29:35;;;;;;;;;;;12.80;73.20;;;;;;5031167;28;19913;-71
2022/06/23 11:32:14;;;;;;;;;;;12.80;73.70;;;;;;5040414;28;19917;-71
2022/06/23 11:34:41;;;;;;;;;;;12.80;73.50;;;;;;5053909;28;19929;-71
2022/06/23 11:37:26;;;;;;;;;;;12.80;73.20;;;;;;5034768;28;20389;-71
2022/06/23 11:40:04;;;;;;;;;;;12.80;72.80;;;;;;5048297;28;20010;-70
2022/06/23 11:42:49;;;;;;;;;;;12.80;72.90;;;;;;5031474;28;19913;-71
2022/06/23 11:45:15;;;;;;;;;;;12.70;73.20;;;;;;5046219;28;20420;-71
2022/06/23 11:47:42;;;;;;;;;;;12.70;73.80;;;;;;5050119;28;19908;-71
2022/06/23 11:50:12;;;;;;;;;;;12.70;73.70;;;;;;5050425;28;19912;-71
2022/06/23 11:52:48;;;;;;;;;;;12.70;73.60;;;;;;5032886;28;19927;-71
2022/06/23 11:55:33;;;;;;;;;;;12.70;73.00;;;;;;5028899;28;20421;-71
2022/06/23 11:58:15;;;;;;;;;;;12.70;73.00;;;;;;5048161;28;19909;-71
2022/06/23 12:01:00;;;;;;;;;;;12.70;73.50;;;;;;5038617;28;19955;-71
2022/06/23 12:03:38;;;;;;;;;;;12.70;73.60;;;;;;5041568;28;20007;-71
2022/06/23 12:06:18;;;;;;;;;;;12.70;73.50;;;;;;5034745;28;19920;-72
2022/06/23 12:08:44;;;;;;;;;;;12.70;73.70;;;;;;5035538;28;19908;-71
2022/06/23 12:11:11;;;;;;;;;;;12.70;74.10;;;;;;5052025;28;20003;-71
2022/06/23 12:13:37;;;;;;;;;;;12.70;74.20;;;;;;5045236;28;19917;-71
2022/06/23 12:16:04;;;;;;;;;;;12.60;74.30;;;;;;5032138;28;19927;-71
2022/06/23 12:18:39;;;;;;;;;;;12.50;74.50;;;;;;5034531;28;19913;-71
2022/06/23 12:21:06;;;;;;;;;;;12.40;75.10;;;;;;5017560;28;19921;-71
2022/06/23 12:23:46;;;;;;;;;;;12.30;75.50;;;;;;5052460;28;20428;-71
2022/06/23 12:26:15;;;;;;;;;;;12.30;75.80;;;;;;5037049;28;20334;-71
2022/06/23 12:28:53;;;;;;;;;;;12.20;76.00;;;;;;5033121;28;20367;-71
2022/06/23 12:31:23;;;;;;;;;;;12.20;76.30;;;;;;5037664;28;19913;-70
2022/06/23 12:34:01;;;;;;;;;;;12.20;76.50;;;;;;5043831;28;20279;-71
2022/06/23 12:36:31;;;;;;;;;;;12.20;76.70;;;;;;5037415;28;19921;-71
2022/06/23 12:38:58;;;;;;;;;;;12.10;76.80;;;;;;5037592;28;20388;-71
2022/06/23 12:41:26;;;;;;;;;;;12.00;77.20;;;;;;5037650;28;19995;-71
2022/06/23 12:43:54;;;;;;;;;;;12.00;77.40;;;;;;5036421;28;19913;-71
2022/06/23 12:46:24;;;;;;;;;;;12.00;77.40;;;;;;5044793;28;20368;-70
2022/06/23 12:48:54;;;;;;;;;;;12.00;77.40;;;;;;5071381;28;19912;-71
2022/06/23 13:03:14;;;;;;;;;;;12.10;76.60;;;;;;5068553;28;19947;-71
2022/06/23 13:05:53;;;;;;;;;;;12.10;76.80;;;;;;5032219;28;20376;-71
2022/06/23 13:08:22;;;;;;;;;;;12.10;76.90;;;;;;5000872;28;19920;-71
2022/06/23 13:10:59;;;;;;;;;;;12.00;77.20;;;;;;5017671;28;19951;-71
2022/06/23 13:13:27;;;;;;;;;;;12.00;77.30;;;;;;5000162;28;19913;-71
2022/06/23 13:16:00;;;;;;;;;;;12.00;77.20;;;;;;5017003;28;19921;-71
2022/06/23 13:18:46;;;;;;;;;;;12.00;77.20;;;;;;5016957;28;19940;-71
2022/06/23 13:21:13;;;;;;;;;;;12.00;77.10;;;;;;5000836;28;20392;-71
2022/06/23 13:23:40;;;;;;;;;;;12.00;77.00;;;;;;5034245;28;19909;-71
2022/06/23 13:26:26;;;;;;;;;;;12.00;77.10;;;;;;5034488;28;20275;-71
2022/06/23 13:29:08;;;;;;;;;;;12.00;77.00;;;;;;5020459;28;19913;-71
2022/06/23 13:31:55;;;;;;;;;;;12.00;76.80;;;;;;5033768;28;19913;-71
2022/06/23 13:34:27;;;;;;;;;;;12.00;76.60;;;;;;5033753;28;19917;-70
2022/06/23 13:37:10;;;;;;;;;;;12.00;76.40;;;;;;5034425;28;19913;-70
2022/06/23 13:39:39;;;;;;;;;;;12.00;76.60;;;;;;5016442;28;19982;-71
2022/06/23 13:42:20;;;;;;;;;;;12.00;76.70;;;;;;5034062;28;19949;-71
2022/06/23 13:44:57;;;;;;;;;;;11.90;76.80;;;;;;5016040;28;20387;-71
2022/06/23 13:47:30;;;;;;;;;;;11.90;76.80;;;;;;5016229;28;20286;-71
2022/06/23 13:50:00;;;;;;;;;;;11.90;76.60;;;;;;5016408;28;19909;-71
2022/06/23 13:52:34;;;;;;;;;;;11.90;76.00;;;;;;5033783;28;19913;-71
2022/06/23 13:55:04;;;;;;;;;;;11.90;75.90;;;;;;5015960;28;19917;-71
2022/06/23 13:57:59;;;;;;;;;;;11.90;75.60;;;;;;5032966;28;19955;-71
2022/06/23 14:00:42;;;;;;;;;;;11.90;75.50;;;;;;4960512;28;19910;-71
2022/06/23 14:03:15;;;;;;;;;;;11.90;75.40;;;;;;5002785;28;19960;-70
2022/06/23 14:06:01;;;;;;;;;;;11.90;75.50;;;;;;5066007;28;19908;-71
2022/06/23 14:08:33;;;;;;;;;;;11.90;75.50;;;;;;5072628;28;20354;-71
2022/06/23 14:10:59;;;;;;;;;;;11.80;75.90;;;;;;5031181;28;19913;-71
2022/06/23 14:13:49;;;;;;;;;;;11.80;75.80;;;;;;5064906;28;20340;-71
2022/06/23 14:16:20;;;;;;;;;;;11.80;75.80;;;;;;5062748;28;19921;-71
2022/06/23 14:18:53;;;;;;;;;;;11.80;75.90;;;;;;5055360;28;19912;-71
2022/06/23 14:21:20;;;;;;;;;;;11.70;76.20;;;;;;5059512;28;20402;-71
2022/06/23 14:24:04;;;;;;;;;;;11.70;76.30;;;;;;5061356;28;19996;-71
2022/06/23 14:26:49;;;;;;;;;;;11.70;76.20;;;;;;5073532;28;20359;-71
2022/06/23 14:29:18;;;;;;;;;;;11.70;76.10;;;;;;5055596;28;20012;-70
2022/06/23 14:31:49;;;;;;;;;;;11.70;76.10;;;;;;5073065;28;19909;-71
2022/06/23 14:34:16;;;;;;;;;;;11.70;76.30;;;;;;5041423;28;19912;-71
2022/06/23 14:37:01;;;;;;;;;;;11.70;76.70;;;;;;5073103;28;19935;-71
2022/06/23 14:39:56;;;;;;;;;;;11.70;76.90;;;;;;5073423;28;19912;-71
2022/06/23 14:42:39;;;;;;;;;;;11.60;77.00;;;;;;5053205;28;19914;-70
2022/06/23 14:45:16;;;;;;;;;;;11.60;77.00;;;;;;5030334;28;20686;-71
2022/06/23 14:48:00;;;;;;;;;;;11.50;76.90;;;;;;5064289;28;20512;-71
2022/06/23 14:50:33;;;;;;;;;;;11.50;76.70;;;;;;5072753;28;19917;-71
2022/06/23 14:53:18;;;;;;;;;;;11.50;77.20;;;;;;5055224;28;19958;-71
2022/06/23 14:55:54;;;;;;;;;;;11.50;77.30;;;;;;5069022;28;20370;-71
2022/06/23 14:58:21;;;;;;;;;;;11.40;77.40;;;;;;5034941;28;19916;-71
2022/06/23 15:00:57;;;;;;;;;;;11.30;77.50;;;;;;5067329;28;19920;-71
2022/06/23 15:03:25;;;;;;;;;;;11.30;77.70;;;;;;5072395;28;20409;-71
2022/06/23 15:06:24;;;;;;;;;;;11.30;77.90;;;;;;5072632;28;20014;-71
2022/06/23 15:08:56;;;;;;;;;;;11.30;77.80;;;;;;5020039;28;19916;-71
2022/06/23 15:11:45;;;;;;;;;;;11.20;78.10;;;;;;5072512;28;20286;-71
2022/06/23 15:14:11;;;;;;;;;;;11.20;78.20;;;;;;5072558;28;19909;-71
2022/06/23 15:16:59;;;;;;;;;;;11.20;78.30;;;;;;5072477;28;19919;-71
2022/06/23 15:19:36;;;;;;;;;;;11.20;78.10;;;;;;5060374;28;19966;-71
2022/06/23 15:25:14;;;;;;;;;;;11.20;78.50;;;;;;5072513;28;19961;-71
2022/06/23 15:27:44;;;;;;;;;;;11.20;78.20;;;;;;5056516;28;20345;-71
2022/06/23 15:30:18;;;;;;;;;;;11.20;78.10;;;;;;5068816;28;19909;-71
2022/06/23 15:32:47;;;;;;;;;;;11.20;78.40;;;;;;5072450;28;19908;-71
2022/06/23 15:35:25;;;;;;;;;;;11.20;78.50;;;;;;5051725;28;19916;-71
2022/06/23 15:38:01;;;;;;;;;;;11.20;78.70;;;;;;5045361;28;19921;-71
2022/06/23 15:40:28;;;;;;;;;;;11.20;78.70;;;;;;5069871;28;19916;-71
2022/06/23 15:43:04;;;;;;;;;;;11.20;78.70;;;;;;5072262;28;19909;-71
2022/06/23 15:45:36;;;;;;;;;;;11.20;78.70;;;;;;5058071;28;19912;-71
2022/06/23 15:48:05;;;;;;;;;;;11.20;78.60;;;;;;5066299;28;19912;-71
2022/06/23 15:50:55;;;;;;;;;;;11.10;78.80;;;;;;5037818;28;19915;-71
2022/06/23 15:53:21;;;;;;;;;;;11.10;79.00;;;;;;5042460;28;19920;-71
2022/06/23 15:55:54;;;;;;;;;;;11.10;79.50;;;;;;5072190;28;19924;-71
2022/06/23 15:58:43;;;;;;;;;;;11.00;79.60;;;;;;5063448;28;19913;-71
2022/06/23 16:01:21;;;;;;;;;;;10.90;79.80;;;;;;5034345;28;19909;-71
2022/06/23 16:03:49;;;;;;;;;;;10.90;80.00;;;;;;5053217;28;19920;-71
2022/06/23 16:06:17;;;;;;;;;;;10.80;80.30;;;;;;5034502;28;19922;-70
2022/06/23 16:08:45;;;;;;;;;;;10.80;80.70;;;;;;5032800;28;19909;-71
2022/06/23 16:11:12;;;;;;;;;;;10.80;80.70;;;;;;5067944;28;19913;-70
2022/06/23 16:14:10;;;;;;;;;;;10.80;80.80;;;;;;5055297;28;19909;-70
2022/06/23 16:16:43;;;;;;;;;;;10.80;81.00;;;;;;5039346;28;19924;-70
2022/06/23 16:19:11;;;;;;;;;;;10.70;81.20;;;;;;5044370;28;20377;-70
2022/06/23 16:21:38;;;;;;;;;;;10.80;81.10;;;;;;5048660;28;20283;-70
2022/06/23 16:24:14;;;;;;;;;;;10.70;81.10;;;;;;5031240;28;19925;-71
2022/06/23 16:26:57;;;;;;;;;;;10.80;81.20;;;;;;5066116;28;20326;-70
2022/06/23 16:29:25;;;;;;;;;;;10.70;81.30;;;;;;5040628;28;19909;-70
2022/06/23 16:31:55;;;;;;;;;;;10.70;81.30;;;;;;5057419;28;20388;-70
2022/06/23 16:34:22;;;;;;;;;;;10.70;81.20;;;;;;5052698;28;19913;-70
2022/06/23 16:36:58;;;;;;;;;;;10.70;81.30;;;;;;5068074;28;20358;-70
2022/06/23 16:39:27;;;;;;;;;;;10.70;81.10;;;;;;5037235;28;20305;-71
2022/06/23 16:42:12;;;;;;;;;;;10.70;80.90;;;;;;5071690;28;19909;-71
2022/06/23 16:44:39;;;;;;;;;;;10.80;80.90;;;;;;5057921;28;19912;-71
2022/06/23 16:47:09;;;;;;;;;;;10.70;80.90;;;;;;5033648;28;19909;-71
2022/06/23 16:49:39;;;;;;;;;;;10.70;81.20;;;;;;5057661;28;20278;-70
2022/06/23 16:52:06;;;;;;;;;;;10.70;81.50;;;;;;5075085;28;19916;-70
2022/06/23 16:54:45;;;;;;;;;;;10.70;81.70;;;;;;5068393;28;19921;-70
2022/06/23 16:57:11;;;;;;;;;;;10.70;81.80;;;;;;5074833;28;19919;-70
2022/06/23 16:59:46;;;;;;;;;;;10.70;82.00;;;;;;5075217;28;19909;-71
2022/06/23 17:02:18;;;;;;;;;;;10.60;82.20;;;;;;5057329;28;19940;-71
2022/06/23 17:04:48;;;;;;;;;;;10.50;82.40;;;;;;5046617;28;19924;-70
2022/06/23 17:07:14;;;;;;;;;;;10.50;82.80;;;;;;5074991;28;19912;-71
2022/06/23 17:09:59;;;;;;;;;;;10.40;82.90;;;;;;5075200;28;19912;-71
2022/06/23 17:12:44;;;;;;;;;;;10.40;82.90;;;;;;5074587;28;20285;-70
2022/06/23 17:15:14;;;;;;;;;;;10.40;82.90;;;;;;5052618;28;19921;-71
2022/06/23 17:17:43;;;;;;;;;;;10.50;82.90;;;;;;5072507;28;19921;-70
2022/06/23 17:20:18;;;;;;;;;;;10.50;83.00;;;;;;5074916;28;19916;-71
2022/06/23 17:22:45;;;;;;;;;;;10.60;82.80;;;;;;5039834;28;19983;-70
2022/06/23 17:25:16;;;;;;;;;;;10.50;82.70;;;;;;5047333;28;20309;-70
2022/06/23 17:27:48;;;;;;;;;;;10.60;82.70;;;;;;5069831;28;20289;-70
2022/06/23 17:30:18;;;;;;;;;;;10.50;82.90;;;;;;5056537;28;19978;-71
2022/06/23 17:33:03;;;;;;;;;;;10.50;83.20;;;;;;5036236;28;19962;-71
2022/06/23 17:35:32;;;;;;;;;;;10.50;83.00;;;;;;5063885;28;19930;-71
2022/06/23 17:43:46;;;;;;;;;;;10.50;82.80;;;;;;5040916;28;19923;-72
2022/06/23 17:46:13;;;;;;;;;;;10.50;83.00;;;;;;5067936;28;19912;-72
2022/06/23 17:48:44;;;;;;;;;;;10.50;83.10;;;;;;5046311;28;19987;-72
2022/06/23 17:51:15;;;;;;;;;;;10.50;83.00;;;;;;5056471;28;19908;-72
2022/06/23 17:53:54;;;;;;;;;;;10.50;83.30;;;;;;5063228;28;19940;-72
2022/06/23 17:56:21;;;;;;;;;;;10.40;83.60;;;;;;5056417;28;20268;-71
2022/06/23 17:58:48;;;;;;;;;;;10.40;83.50;;;;;;5055079;28;19908;-72
2022/06/23 18:01:16;;;;;;;;;;;10.40;83.50;;;;;;5037705;28;20330;-71
2022/06/23 18:03:43;;;;;;;;;;;10.40;83.90;;;;;;5028605;28;20350;-71